You are listening to:
KMIA Approach #2 - Miami, Florida, United States

KMIA 260653Z 12007KT 10SM CLR 23/16 A3012 RMK AO2 SLP198 T02330161 $

If stream doesn't start automatically press the play button
If stream stops then reload player then press play